| time (UTC) | temp F | wind direction | speed MPH | gust MPH | rain 1hr in | rain 24hr in | rain mn in | humidity % | barometer mb |
| 20260903193019 | 90 | 201 | 7.0 | 11.0 | 0.00 | 0.42 | 0.42 | 62 | 1015.9 |
| 20260903191529 | 87 | 152 | 1.0 | 8.0 | 0.00 | 0.42 | 0.42 | 64 | 1016.1 |
| 20260903190024 | 83 | 203 | 5.0 | 10.0 | 0.00 | 0.42 | 0.42 | 71 | 1016.5 |
| 20260903184519 | 85 | 226 | 7.0 | 15.0 | 0.00 | 0.42 | 0.42 | 69 | 1016.8 |
| 20260903183029 | 86 | 212 | 10.0 | 16.0 | 0.00 | 0.42 | 0.42 | 67 | 1017.0 |
| 20260903181532 | 84 | 226 | 8.0 | 17.0 | 0.00 | 0.42 | 0.42 | 71 | 1017.1 |
| 20260903180033 | 84 | 258 | 10.0 | 18.0 | 0.01 | 0.42 | 0.42 | 73 | 1017.3 |
| 20260903174526 | 81 | 201 | 5.0 | 14.0 | 0.02 | 0.42 | 0.42 | 80 | 1017.7 |
| 20260903173017 | 79 | 219 | 9.0 | 13.0 | 0.02 | 0.42 | 0.42 | 84 | 1017.8 |
| 20260903171529 | 78 | 195 | 5.0 | 13.0 | 0.02 | 0.42 | 0.42 | 86 | 1017.9 |
| 20260903170034 | 77 | 166 | 4.0 | 11.0 | 0.01 | 0.41 | 0.41 | 87 | 1017.9 |
| 20260903164520 | 78 | 171 | 10.0 | 19.0 | 0.00 | 0.40 | 0.40 | 83 | 1017.9 |
| 20260903163027 | 79 | 186 | 11.0 | 19.0 | 0.00 | 0.40 | 0.40 | 79 | 1017.9 |
| 20260903161532 | 81 | 208 | 13.0 | 18.0 | 0.00 | 0.40 | 0.40 | 77 | 1017.7 |
| 20260903160037 | 81 | 192 | 18.0 | 22.0 | 0.00 | 0.40 | 0.40 | 76 | 1017.5 |
| 20260903154510 | 81 | 203 | 13.0 | 18.0 | 0.00 | 0.40 | 0.40 | 76 | 1017.5 |
| 20260903153016 | 80 | 193 | 10.0 | 17.0 | 0.00 | 0.40 | 0.40 | 79 | 1017.3 |
| 20260903151516 | 79 | 172 | 8.0 | 17.0 | 0.00 | 0.40 | 0.40 | 80 | 1017.2 |
| 20260903150015 | 80 | 175 | 8.0 | 16.0 | 0.00 | 0.40 | 0.40 | 80 | 1017.3 |
| 20260903144520 | 78 | 186 | 11.0 | 15.0 | 0.00 | 0.40 | 0.40 | 81 | 1017.4 |
| 20260903143014 | 80 | 191 | 10.0 | 16.0 | 0.00 | 0.40 | 0.40 | 82 | 1017.2 |
| 20260903141517 | 78 | 182 | 8.0 | 12.0 | 0.00 | 0.40 | 0.40 | 83 | 1017.4 |
| 20260903140020 | 78 | 161 | 7.0 | 10.0 | 0.00 | 0.40 | 0.40 | 84 | 1017.3 |
| 20260903134512 | 76 | 186 | 7.0 | 11.0 | 0.00 | 0.40 | 0.40 | 87 | 1017.4 |
| 20260903133017 | 76 | 173 | 6.0 | 17.0 | 0.00 | 0.40 | 0.40 | 87 | 1017.3 |
| 20260903131518 | 75 | 194 | 10.0 | 14.0 | 0.00 | 0.40 | 0.40 | 87 | 1017.1 |
| 20260903130021 | 75 | 170 | 6.0 | 11.0 | 0.00 | 0.40 | 0.40 | 88 | 1017.3 |
| 20260903124520 | 75 | 156 | 5.0 | 12.0 | 0.00 | 0.40 | 0.40 | 90 | 1017.1 |
| 20260903123026 | 74 | 153 | 6.0 | 10.0 | 0.00 | 0.40 | 0.40 | 89 | 1017.0 |
| 20260903121544 | 75 | 165 | 7.0 | 11.0 | 0.00 | 0.40 | 0.40 | 89 | 1016.8 |
| 20260903120021 | 75 | 162 | 7.0 | 12.0 | 0.00 | 0.40 | 0.40 | 89 | 1016.8 |
| 20260903114518 | 74 | 172 | 6.0 | 10.0 | 0.01 | 0.40 | 0.40 | 89 | 1016.7 |
| 20260903113025 | 74 | 160 | 6.0 | 13.0 | 0.01 | 0.40 | 0.40 | 90 | 1016.7 |
| 20260903111524 | 74 | 169 | 7.0 | 11.0 | 0.01 | 0.40 | 0.40 | 89 | 1016.5 |
| 20260903110023 | 74 | 170 | 7.0 | 14.0 | 0.01 | 0.40 | 0.40 | 89 | 1016.2 |
| 20260903104545 | 74 | 176 | 7.0 | 14.0 | 0.00 | 0.39 | 0.39 | 90 | 1016.3 |
| 20260903103025 | 74 | 124 | 7.0 | 9.0 | 0.00 | 0.39 | 0.39 | 90 | 1016.4 |
| 20260903101524 | 74 | 163 | 7.0 | 11.0 | 0.00 | 0.39 | 0.39 | 89 | 1016.4 |
| 20260903100037 | 74 | 144 | 7.0 | 13.0 | 0.00 | 0.39 | 0.39 | 88 | 1016.6 |
| 20260903094515 | 75 | 158 | 8.0 | 12.0 | 0.00 | 0.39 | 0.39 | 88 | 1016.4 |
| 20260903093005 | 75 | 190 | 12.0 | 19.0 | 0.00 | 0.39 | 0.39 | 88 | 1016.2 |
| 20260903091514 | 74 | 170 | 8.0 | 16.0 | 0.01 | 0.39 | 0.39 | 88 | 1016.2 |
| 20260903090012 | 75 | 189 | 15.0 | 26.0 | 0.01 | 0.39 | 0.39 | 87 | 1016.0 |
| 20260903084515 | 75 | 160 | 9.0 | 19.0 | 0.05 | 0.39 | 0.39 | 87 | 1016.0 |
| 20260903083019 | 74 | 168 | 5.0 | 11.0 | 0.21 | 0.39 | 0.39 | 89 | 1016.0 |
| 20260903081505 | 74 | 180 | 7.0 | 14.0 | 0.31 | 0.38 | 0.38 | 87 | 1015.9 |
| 20260903080009 | 74 | 205 | 14.0 | 29.0 | 0.32 | 0.38 | 0.38 | 86 | 1015.9 |
| 20260903074515 | 74 | 212 | 17.0 | 29.0 | 0.34 | 0.34 | 0.34 | 88 | 1016.1 |
| 20260903073019 | 75 | 179 | 17.0 | 32.0 | 0.18 | 0.18 | 0.18 | 88 | 1016.3 |
| 20260903071519 | 75 | 188 | 16.0 | 26.0 | 0.07 | 0.07 | 0.07 | 86 | 1016.1 |
| 20260903070006 | 76 | 150 | 10.0 | 19.0 | 0.06 | 0.06 | 0.06 | 85 | 1016.0 |
| 20260903064512 | 80 | 182 | 16.0 | 29.0 | 0.00 | 0.00 | 0.00 | 74 | 1016.1 |
| 20260903063023 | 80 | 142 | 9.0 | 17.0 | 0.00 | 0.00 | 0.00 | 72 | 1016.1 |
| 20260903061508 | 80 | 151 | 5.0 | 11.0 | 0.00 | 0.00 | 0.00 | 74 | 1016.0 |
| 20260903060018 | 79 | 148 | 6.0 | 9.0 | 0.00 | 0.00 | 0.00 | 75 | 1015.9 |
| 20260903054509 | 80 | 121 | 4.0 | 8.0 | 0.00 | 0.00 | 0.00 | 74 | 1015.9 |
| 20260903053016 | 80 | 153 | 5.0 | 10.0 | 0.00 | 0.00 | 0.00 | 74 | 1015.9 |
| 20260903051525 | 80 | 151 | 5.0 | 11.0 | 0.00 | 0.00 | 0.00 | 74 | 1015.9 |
| 20260903050034 | 79 | 150 | 3.0 | 9.0 | 0.00 | 0.00 | 0.00 | 75 | 1015.9 |
| 20260903044519 | 80 | 172 | 6.0 | 10.0 | 0.00 | 0.00 | 0.00 | 74 | 1015.8 |
| 20260903043018 | 80 | 152 | 4.0 | 13.0 | 0.00 | 0.00 | 0.00 | 74 | 1016.0 |
| 20260903041512 | 80 | 154 | 4.0 | 8.0 | 0.00 | 0.00 | 0.00 | 73 | 1016.1 |
| 20260903040024 | 80 | 141 | 6.0 | 10.0 | 0.00 | 0.00 | 0.00 | 72 | 1016.1 |
| 20260903034529 | 80 | 126 | 6.0 | 12.0 | 0.00 | 0.00 | 0.00 | 71 | 1016.2 |
| 20260903033018 | 81 | 135 | 8.0 | 14.0 | 0.00 | 0.00 | 0.00 | 70 | 1016.3 |
| 20260903031511 | 81 | 141 | 9.0 | 13.0 | 0.00 | 0.00 | 0.00 | 69 | 1016.2 |
| 20260903030027 | 81 | 106 | 4.0 | 9.0 | 0.00 | 0.00 | 0.00 | 69 | 1016.1 |
| 20260903024521 | 82 | 139 | 4.0 | 12.0 | 0.00 | 0.00 | 0.00 | 69 | 1015.8 |
| 20260903023031 | 82 | 134 | 8.0 | 14.0 | 0.00 | 0.00 | 0.00 | 68 | 1015.8 |
| 20260903021512 | 82 | 117 | 6.0 | 11.0 | 0.00 | 0.00 | 0.00 | 68 | 1015.7 |
| 20260903020033 | 82 | 135 | 6.0 | 12.0 | 0.00 | 0.00 | 0.00 | 67 | 1015.6 |
| 20260903014523 | 83 | 153 | 6.0 | 13.0 | 0.00 | 0.00 | 0.00 | 66 | 1015.4 |
| 20260903013018 | 84 | 112 | 7.0 | 13.0 | 0.00 | 0.00 | 0.00 | 64 | 1015.2 |
| 20260903011538 | 85 | 155 | 5.0 | 13.0 | 0.00 | 0.00 | 0.00 | 62 | 1015.0 |
| 20260903010032 | 86 | 134 | 6.0 | 12.0 | 0.00 | 0.00 | 0.00 | 58 | 1014.9 |
| 20260903004529 | 87 | 150 | 6.0 | 15.0 | 0.00 | 0.00 | 0.00 | 57 | 1014.6 |
| 20260903003027 | 88 | 133 | 7.0 | 17.0 | 0.00 | 0.00 | 0.00 | 56 | 1014.6 |
| 20260903001517 | 88 | 120 | 7.0 | 18.0 | 0.00 | 0.00 | 0.00 | 55 | 1014.6 |
| 20260903000040 | 89 | 72 | 9.0 | 20.0 | 0.00 | 0.00 | 0.00 | 53 | 1014.6 |
| 20260902234528 | 90 | 122 | 13.0 | 22.0 | 0.00 | 0.00 | 0.00 | 50 | 1014.6 |
| 20260902233023 | 92 | 115 | 12.0 | 22.0 | 0.00 | 0.00 | 0.00 | 48 | 1014.4 |
| 20260902231528 | 93 | 112 | 10.0 | 17.0 | 0.00 | 0.00 | 0.00 | 46 | 1014.2 |
| 20260902230030 | 94 | 107 | 8.0 | 18.0 | 0.00 | 0.00 | 0.00 | 46 | 1014.1 |
| 20260902224528 | 94 | 123 | 12.0 | 22.0 | 0.00 | 0.00 | 0.00 | 44 | 1014.1 |
| 20260902223033 | 94 | 86 | 14.0 | 25.0 | 0.00 | 0.00 | 0.00 | 45 | 1014.1 |
| 20260902221523 | 95 | 110 | 17.0 | 23.0 | 0.00 | 0.00 | 0.00 | 45 | 1014.1 |
| 20260902220041 | 95 | 125 | 13.0 | 25.0 | 0.00 | 0.00 | 0.00 | 46 | 1014.2 |
| 20260902214551 | 95 | 102 | 16.0 | 23.0 | 0.00 | 0.00 | 0.00 | 45 | 1014.1 |
| 20260902213026 | 96 | 86 | 10.0 | 23.0 | 0.00 | 0.00 | 0.00 | 44 | 1014.1 |
| 20260902211530 | 96 | 104 | 16.0 | 25.0 | 0.00 | 0.00 | 0.00 | 42 | 1014.4 |
| 20260902210018 | 96 | 116 | 13.0 | 21.0 | 0.00 | 0.00 | 0.00 | 45 | 1014.6 |
| 20260902204527 | 96 | 86 | 12.0 | 20.0 | 0.00 | 0.00 | 0.00 | 45 | 1014.7 |
| 20260902203032 | 95 | 72 | 9.0 | 18.0 | 0.00 | 0.00 | 0.00 | 45 | 1014.8 |
| 20260902201535 | 97 | 54 | 10.0 | 16.0 | 0.00 | 0.00 | 0.00 | 43 | 1014.9 |
| 20260902200033 | 95 | 117 | 11.0 | 22.0 | 0.00 | 0.00 | 0.00 | 44 | 1015.1 |
| 20260902194525 | 97 | 89 | 15.0 | 20.0 | 0.00 | 0.00 | 0.00 | 43 | 1015.1 |